Time;durP1;ratioP1;P1;durP2;ratioP2;P2;SDS_P1;SDS_P2;PMS_P1;PMS_P2;Temp;Humidity;BMP_temperature;BMP_pressure;BME280_temperature;BME280_humidity;BME280_pressure;Samples;Min_cycle;Max_cycle;Signal;HPM_P1;HPM_P2
2021/08/14 00:02:09;;;;;;;7.35;4.10;;;;;;;;;;10443823;27;20488;-56
2021/08/14 00:07:09;;;;;;;4.68;3.90;;;;;;;;;;10443621;27;20047;-56
2021/08/14 00:12:07;;;;;;;6.85;3.78;;;;;;;;;;10442434;27;20539;-55
2021/08/14 00:17:06;;;;;;;5.45;3.30;;;;;;;;;;10442954;27;20061;-55
2021/08/14 00:22:04;;;;;;;6.80;3.88;;;;;;;;;;10424491;27;20447;-56
2021/08/14 00:27:04;;;;;;;7.32;3.53;;;;;;;;;;10441467;27;20054;-56
2021/08/14 00:32:03;;;;;;;5.35;4.05;;;;;;;;;;10423851;27;20059;-55
2021/08/14 00:37:01;;;;;;;6.20;3.60;;;;;;;;;;10442323;27;20043;-56
2021/08/14 00:41:59;;;;;;;6.57;3.80;;;;;;;;;;10441903;27;20495;-56
2021/08/14 00:46:59;;;;;;;4.28;3.80;;;;;;;;;;10442121;27;20047;-56
2021/08/14 00:51:58;;;;;;;5.57;3.60;;;;;;;;;;10441660;27;20050;-55
2021/08/14 00:56:57;;;;;;;6.00;3.83;;;;;;;;;;10440571;27;20078;-56
2021/08/14 01:01:55;;;;;;;7.18;3.83;;;;;;;;;;10441608;27;20147;-56
2021/08/14 01:06:55;;;;;;;7.15;4.38;;;;;;;;;;10441017;27;20043;-56
2021/08/14 01:11:53;;;;;;;6.05;4.15;;;;;;;;;;10441346;27;20499;-56
2021/08/14 01:16:52;;;;;;;10.68;4.15;;;;;;;;;;10440848;27;20051;-55
2021/08/14 01:21:50;;;;;;;6.00;4.50;;;;;;;;;;10440960;27;20089;-54
2021/08/14 01:26:50;;;;;;;7.93;5.20;;;;;;;;;;10440760;27;20073;-53
2021/08/14 01:31:48;;;;;;;6.40;4.10;;;;;;;;;;10440149;27;20495;-55
2021/08/14 01:36:47;;;;;;;6.05;3.65;;;;;;;;;;10440665;27;20220;-54
2021/08/14 01:41:57;;;;;;;10.18;3.80;;;;;;;;;;10440635;28;20071;-54
2021/08/14 01:46:55;;;;;;;5.07;4.00;;;;;;;;;;10440683;28;20506;-54
2021/08/14 01:51:53;;;;;;;10.52;4.75;;;;;;;;;;10441089;28;20047;-56
2021/08/14 01:56:52;;;;;;;9.20;4.40;;;;;;;;;;10440672;28;20059;-56
2021/08/14 02:01:51;;;;;;;7.50;4.22;;;;;;;;;;10440115;28;20075;-56
2021/08/14 02:06:50;;;;;;;19.80;17.77;;;;;;;;;;10439259;28;20054;-56
2021/08/14 02:11:48;;;;;;;5.75;4.88;;;;;;;;;;10447963;27;20046;-58
2021/08/14 02:16:46;;;;;;;7.13;4.50;;;;;;;;;;10447639;27;20078;-61
2021/08/14 02:21:46;;;;;;;13.23;4.22;;;;;;;;;;10447708;27;20074;-56
2021/08/14 02:26:44;;;;;;;5.07;3.88;;;;;;;;;;10446902;27;20079;-57
2021/08/14 02:31:42;;;;;;;4.93;4.18;;;;;;;;;;10447923;27;20411;-56
2021/08/14 02:36:41;;;;;;;6.93;3.85;;;;;;;;;;10447406;27;20043;-57
2021/08/14 02:41:40;;;;;;;5.85;4.40;;;;;;;;;;10446986;27;20075;-54
2021/08/14 02:46:39;;;;;;;6.18;4.10;;;;;;;;;;10446406;27;20058;-59
2021/08/14 02:51:37;;;;;;;6.60;4.25;;;;;;;;;;10446578;27;20469;-61
2021/08/14 02:56:35;;;;;;;6.68;4.28;;;;;;;;;;10446567;27;20043;-60
2021/08/14 03:01:35;;;;;;;5.20;4.28;;;;;;;;;;10446275;27;20075;-60
2021/08/14 03:06:34;;;;;;;4.28;3.75;;;;;;;;;;10446638;27;20039;-59
2021/08/14 03:11:32;;;;;;;4.50;3.90;;;;;;;;;;10445285;27;20047;-59
2021/08/14 03:16:30;;;;;;;7.47;4.10;;;;;;;;;;10446260;27;20062;-60
2021/08/14 03:21:30;;;;;;;8.07;3.50;;;;;;;;;;10444743;27;20043;-59
2021/08/14 03:26:28;;;;;;;7.63;4.03;;;;;;;;;;10445979;27;20039;-59
2021/08/14 03:31:26;;;;;;;6.25;3.78;;;;;;;;;;10445090;27;20071;-60
2021/08/14 03:36:27;;;;;;;6.25;4.13;;;;;;;;;;10444989;27;20047;-54
2021/08/14 03:41:27;;;;;;;8.38;4.75;;;;;;;;;;10456613;27;20093;-56
2021/08/14 03:46:25;;;;;;;5.13;4.40;;;;;;;;;;10464927;27;20046;-55
2021/08/14 03:51:23;;;;;;;5.80;3.83;;;;;;;;;;10485797;27;20070;-55
2021/08/14 03:56:22;;;;;;;9.90;4.13;;;;;;;;;;10486120;27;20046;-57
2021/08/14 04:01:24;;;;;;;7.18;3.95;;;;;;;;;;10475192;27;20081;-57
2021/08/14 04:06:22;;;;;;;9.48;4.75;;;;;;;;;;10468868;27;20074;-57
2021/08/14 04:11:20;;;;;;;7.70;5.00;;;;;;;;;;10454986;27;20066;-57
2021/08/14 04:16:19;;;;;;;6.43;4.10;;;;;;;;;;10485179;27;20035;-56
2021/08/14 04:21:18;;;;;;;8.13;4.85;;;;;;;;;;10484568;27;20071;-52
2021/08/14 04:26:17;;;;;;;9.05;4.70;;;;;;;;;;10484242;27;20045;-56
2021/08/14 04:31:15;;;;;;;9.90;4.55;;;;;;;;;;10483317;27;20042;-54
2021/08/14 04:36:13;;;;;;;8.05;5.35;;;;;;;;;;10469963;27;20039;-57
2021/08/14 04:41:13;;;;;;;8.93;5.65;;;;;;;;;;10458904;27;20070;-57
2021/08/14 04:46:11;;;;;;;8.23;4.15;;;;;;;;;;10477752;27;20081;-56
2021/08/14 04:51:09;;;;;;;7.82;5.15;;;;;;;;;;10481945;27;20038;-57
2021/08/14 04:56:09;;;;;;;7.60;5.07;;;;;;;;;;10482195;27;20054;-56
2021/08/14 05:01:09;;;;;;;9.38;7.13;;;;;;;;;;10484586;27;20078;-56
2021/08/14 05:06:07;;;;;;;9.05;6.53;;;;;;;;;;10483104;27;20043;-57
2021/08/14 05:11:06;;;;;;;13.32;7.07;;;;;;;;;;10484634;27;20039;-57
2021/08/14 05:16:04;;;;;;;13.48;6.93;;;;;;;;;;10483937;27;20038;-57
2021/08/14 05:21:04;;;;;;;13.57;10.02;;;;;;;;;;10481986;27;20518;-57
2021/08/14 05:26:02;;;;;;;9.57;5.53;;;;;;;;;;10483873;27;20042;-55
2021/08/14 05:31:00;;;;;;;9.90;5.78;;;;;;;;;;10483219;27;20039;-56
2021/08/14 05:35:59;;;;;;;7.25;5.53;;;;;;;;;;10481750;27;20083;-58
2021/08/14 05:40:59;;;;;;;6.88;5.07;;;;;;;;;;10484055;27;20086;-56
2021/08/14 05:45:57;;;;;;;5.93;5.13;;;;;;;;;;10483222;27;20517;-58
2021/08/14 05:50:55;;;;;;;12.60;5.53;;;;;;;;;;10483236;27;20046;-58
2021/08/14 05:55:54;;;;;;;6.32;5.22;;;;;;;;;;10482187;27;20038;-56
2021/08/14 06:00:53;;;;;;;10.40;5.82;;;;;;;;;;10483065;27;20074;-57
2021/08/14 06:05:52;;;;;;;15.07;6.25;;;;;;;;;;10483810;27;20043;-55
2021/08/14 06:10:50;;;;;;;9.20;5.53;;;;;;;;;;10482547;27;20443;-58
2021/08/14 06:15:48;;;;;;;12.25;5.85;;;;;;;;;;10482913;27;20503;-54
2021/08/14 06:20:48;;;;;;;10.40;6.13;;;;;;;;;;10482295;27;20050;-55
2021/08/14 06:25:46;;;;;;;11.93;5.85;;;;;;;;;;10482050;27;20043;-57
2021/08/14 06:30:45;;;;;;;9.23;5.75;;;;;;;;;;10482259;27;20047;-55
2021/08/14 06:35:43;;;;;;;13.18;5.85;;;;;;;;;;10483251;27;20043;-52
2021/08/14 06:40:43;;;;;;;7.70;5.47;;;;;;;;;;10481384;27;20043;-57
2021/08/14 06:45:41;;;;;;;12.85;6.63;;;;;;;;;;10482160;27;20232;-55
2021/08/14 06:50:40;;;;;;;11.30;7.50;;;;;;;;;;10481063;27;20410;-55
2021/08/14 06:55:38;;;;;;;11.60;8.50;;;;;;;;;;10484216;27;20495;-56
2021/08/14 07:00:38;;;;;;;6.18;5.55;;;;;;;;;;10488498;27;20046;-54
2021/08/14 07:05:38;;;;;;;20.58;16.77;;;;;;;;;;10488890;27;20502;-56
2021/08/14 07:10:36;;;;;;;11.77;7.32;;;;;;;;;;10488794;27;20417;-57
2021/08/14 07:15:35;;;;;;;15.00;11.50;;;;;;;;;;10488001;27;20053;-56
2021/08/14 07:20:34;;;;;;;11.57;6.88;;;;;;;;;;10486824;27;20049;-57
2021/08/14 07:25:33;;;;;;;29.27;9.63;;;;;;;;;;10488475;27;20066;-57
2021/08/14 07:30:31;;;;;;;13.95;8.50;;;;;;;;;;10488362;27;20490;-57
2021/08/14 07:35:29;;;;;;;17.05;9.10;;;;;;;;;;10488117;27;20050;-58
2021/08/14 07:40:29;;;;;;;10.85;6.05;;;;;;;;;;10486867;27;20042;-58
2021/08/14 07:45:28;;;;;;;10.77;7.07;;;;;;;;;;10486360;27;20078;-57
2021/08/14 07:50:27;;;;;;;8.20;5.75;;;;;;;;;;10486361;27;20043;-57
2021/08/14 07:55:26;;;;;;;8.88;6.90;;;;;;;;;;10487270;27;20081;-56
2021/08/14 08:00:26;;;;;;;14.75;11.13;;;;;;;;;;10487149;27;20035;-57
2021/08/14 08:05:25;;;;;;;22.60;15.95;;;;;;;;;;10486305;27;20086;-57
2021/08/14 08:10:24;;;;;;;12.98;11.02;;;;;;;;;;10486918;27;20140;-57
2021/08/14 08:15:22;;;;;;;12.00;6.13;;;;;;;;;;10486739;27;20042;-58
2021/08/14 08:20:22;;;;;;;15.63;6.57;;;;;;;;;;10485447;27;20058;-58
2021/08/14 08:25:22;;;;;;;10.75;6.10;;;;;;;;;;10484959;27;20077;-57
2021/08/14 08:30:20;;;;;;;6.57;4.88;;;;;;;;;;10485852;27;20395;-56
2021/08/14 08:35:19;;;;;;;7.30;4.13;;;;;;;;;;10485496;27;20451;-57
2021/08/14 08:40:19;;;;;;;7.22;5.40;;;;;;;;;;10485385;27;20414;-56
2021/08/14 08:45:19;;;;;;;9.80;4.80;;;;;;;;;;10483922;27;20085;-57
2021/08/14 08:50:18;;;;;;;7.22;5.15;;;;;;;;;;10483845;27;20054;-55
2021/08/14 08:55:16;;;;;;;7.25;4.32;;;;;;;;;;10483757;27;20181;-56
2021/08/14 09:00:17;;;;;;;10.25;5.88;;;;;;;;;;10483769;27;20039;-56
2021/08/14 09:05:18;;;;;;;8.77;4.57;;;;;;;;;;10483918;27;20074;-57
2021/08/14 09:10:17;;;;;;;10.23;4.80;;;;;;;;;;10483723;27;20047;-55
2021/08/14 09:15:19;;;;;;;7.05;5.30;;;;;;;;;;10482883;27;20047;-54
2021/08/14 09:20:19;;;;;;;8.07;6.25;;;;;;;;;;10481907;27;20049;-57
2021/08/14 09:25:18;;;;;;;7.82;4.43;;;;;;;;;;10481881;27;20081;-58
2021/08/14 09:30:18;;;;;;;8.55;4.57;;;;;;;;;;10483727;27;20045;-58
2021/08/14 09:35:25;;;;;;;8.40;5.10;;;;;;;;;;10483453;27;20044;-57
2021/08/14 09:40:33;;;;;;;6.13;4.32;;;;;;;;;;10482725;27;20495;-57
2021/08/14 09:45:34;;;;;;;5.15;3.85;;;;;;;;;;10482578;27;20081;-58
2021/08/14 09:50:34;;;;;;;5.70;3.80;;;;;;;;;;10482709;27;20050;-57
2021/08/14 09:55:32;;;;;;;10.95;5.10;;;;;;;;;;10481290;27;20062;-56
2021/08/14 10:00:31;;;;;;;9.75;5.82;;;;;;;;;;10481939;27;20050;-57
2021/08/14 10:05:31;;;;;;;7.35;5.18;;;;;;;;;;10481818;27;20047;-56
2021/08/14 10:10:30;;;;;;;12.43;10.43;;;;;;;;;;10482989;27;20046;-56
2021/08/14 10:15:28;;;;;;;8.32;7.53;;;;;;;;;;10482649;27;20049;-58
2021/08/14 10:20:26;;;;;;;7.45;4.30;;;;;;;;;;10482257;27;20047;-57
2021/08/14 10:25:26;;;;;;;5.82;4.53;;;;;;;;;;10481737;27;20047;-56
2021/08/14 10:30:53;;;;;;;5.68;4.55;;;;;;;;;;10466753;27;20046;-53
2021/08/14 10:35:52;;;;;;;6.38;4.45;;;;;;;;;;10442420;27;20058;-55
2021/08/14 10:41:02;;;;;;;6.15;4.95;;;;;;;;;;10488929;27;20101;-57
2021/08/14 10:46:23;;;;;;;7.03;4.60;;;;;;;;;;10489453;27;20078;-57
2021/08/14 10:51:21;;;;;;;8.63;3.88;;;;;;;;;;10488847;27;20295;-54
2021/08/14 10:56:35;;;;;;;5.95;3.80;;;;;;;;;;10489037;27;20043;-57
2021/08/14 11:01:34;;;;;;;5.90;4.13;;;;;;;;;;10487675;27;20058;-58
2021/08/14 11:06:34;;;;;;;5.85;4.10;;;;;;;;;;10488374;27;20070;-55
2021/08/14 11:11:36;;;;;;;8.27;4.32;;;;;;;;;;10488135;27;20143;-57
2021/08/14 11:16:53;;;;;;;8.38;4.30;;;;;;;;;;10487692;27;20046;-57
2021/08/14 11:21:54;;;;;;;8.40;4.72;;;;;;;;;;10469479;27;20043;-57
2021/08/14 11:26:53;;;;;;;6.53;3.75;;;;;;;;;;10487402;27;20474;-58
2021/08/14 11:31:51;;;;;;;4.97;3.90;;;;;;;;;;10487356;27;20050;-56
2021/08/14 11:36:59;;;;;;;5.88;4.00;;;;;;;;;;10486984;27;20070;-55
2021/08/14 11:41:58;;;;;;;7.40;4.18;;;;;;;;;;10486397;27;20104;-56
2021/08/14 11:47:00;;;;;;;9.02;5.75;;;;;;;;;;10486820;27;20070;-58
2021/08/14 11:52:03;;;;;;;6.63;4.28;;;;;;;;;;10486641;27;20047;-56
2021/08/14 11:57:08;;;;;;;6.15;4.15;;;;;;;;;;10486158;27;20485;-54
2021/08/14 12:02:06;;;;;;;9.90;5.10;;;;;;;;;;10485600;27;20039;-60
2021/08/14 12:07:06;;;;;;;4.45;4.05;;;;;;;;;;10485760;27;20078;-59
2021/08/14 12:12:05;;;;;;;9.00;3.78;;;;;;;;;;10484998;27;20054;-60
2021/08/14 12:17:03;;;;;;;6.88;3.72;;;;;;;;;;10485473;27;20073;-62
2021/08/14 12:22:08;;;;;;;7.25;4.22;;;;;;;;;;10467081;27;20434;-64
2021/08/14 12:27:21;;;;;;;6.70;4.15;;;;;;;;;;10485286;27;20081;-60
2021/08/14 12:32:19;;;;;;;6.30;4.30;;;;;;;;;;10485803;27;20077;-60
2021/08/14 12:37:19;;;;;;;8.93;3.53;;;;;;;;;;10484582;27;20148;-61
2021/08/14 12:42:19;;;;;;;6.00;4.38;;;;;;;;;;10484110;27;20046;-61
2021/08/14 12:47:27;;;;;;;8.77;4.63;;;;;;;;;;10484393;27;20089;-61
2021/08/14 12:52:27;;;;;;;13.50;4.03;;;;;;;;;;10484369;27;20070;-61
2021/08/14 12:57:25;;;;;;;5.43;3.88;;;;;;;;;;10483468;27;20054;-61
2021/08/14 13:02:23;;;;;;;6.95;4.45;;;;;;;;;;10483934;27;20042;-61
2021/08/14 13:07:22;;;;;;;6.05;4.00;;;;;;;;;;10482945;27;20084;-61
2021/08/14 13:12:22;;;;;;;8.27;4.07;;;;;;;;;;10482370;27;20046;-60
2021/08/14 13:17:20;;;;;;;6.60;4.50;;;;;;;;;;10482012;27;20088;-60
2021/08/14 13:22:18;;;;;;;4.40;3.70;;;;;;;;;;10482528;27;20046;-61
2021/08/14 13:27:17;;;;;;;5.40;3.47;;;;;;;;;;10482765;27;20099;-61
2021/08/14 13:32:18;;;;;;;8.20;3.72;;;;;;;;;;10482890;27;20070;-60
2021/08/14 13:37:16;;;;;;;5.40;4.20;;;;;;;;;;10482705;27;20426;-61
2021/08/14 13:42:14;;;;;;;5.50;4.47;;;;;;;;;;10482702;27;20045;-60
2021/08/14 13:47:12;;;;;;;6.05;4.47;;;;;;;;;;10482502;27;20077;-60
2021/08/14 13:52:12;;;;;;;4.93;4.07;;;;;;;;;;10481980;27;20066;-61
2021/08/14 13:57:10;;;;;;;6.30;4.50;;;;;;;;;;10481412;27;20043;-60
2021/08/14 14:02:10;;;;;;;6.28;4.18;;;;;;;;;;10481837;27;20043;-60
2021/08/14 14:07:09;;;;;;;7.63;4.35;;;;;;;;;;10488995;27;20081;-60
2021/08/14 14:12:10;;;;;;;9.15;3.70;;;;;;;;;;10490767;27;20042;-60
2021/08/14 14:17:08;;;;;;;5.25;4.60;;;;;;;;;;10489935;27;20059;-60
2021/08/14 14:22:07;;;;;;;11.07;4.35;;;;;;;;;;10490123;27;20034;-60
2021/08/14 14:27:06;;;;;;;9.38;4.30;;;;;;;;;;10489989;27;20066;-60
2021/08/14 14:32:06;;;;;;;9.07;3.97;;;;;;;;;;10471499;27;20419;-61
2021/08/14 14:37:06;;;;;;;4.25;3.55;;;;;;;;;;10489743;27;20050;-61
2021/08/14 14:42:05;;;;;;;9.40;4.00;;;;;;;;;;10489476;27;20043;-61
2021/08/14 14:47:04;;;;;;;8.73;4.63;;;;;;;;;;10489211;27;20509;-61
2021/08/14 14:52:04;;;;;;;11.77;6.38;;;;;;;;;;10488724;27;20046;-61
2021/08/14 14:57:04;;;;;;;7.32;4.07;;;;;;;;;;10488604;27;20414;-61
2021/08/14 15:02:02;;;;;;;6.55;4.63;;;;;;;;;;10488441;27;20529;-61
2021/08/14 15:07:01;;;;;;;5.68;4.18;;;;;;;;;;10487510;27;20082;-59
2021/08/14 15:12:04;;;;;;;7.10;4.63;;;;;;;;;;10487841;27;20047;-60
2021/08/14 15:17:02;;;;;;;6.82;4.05;;;;;;;;;;10486096;27;20093;-61
2021/08/14 15:22:01;;;;;;;6.35;4.40;;;;;;;;;;10469226;27;20057;-61
2021/08/14 15:27:01;;;;;;;5.72;4.65;;;;;;;;;;10487679;27;20072;-61
2021/08/14 15:32:00;;;;;;;8.05;4.72;;;;;;;;;;10487158;27;20042;-60
2021/08/14 15:36:58;;;;;;;6.22;4.35;;;;;;;;;;10487246;27;20042;-60
2021/08/14 15:41:57;;;;;;;8.35;5.28;;;;;;;;;;10487173;27;20406;-61
2021/08/14 15:46:57;;;;;;;7.20;4.15;;;;;;;;;;10467671;27;20051;-61
2021/08/14 15:51:56;;;;;;;7.95;4.10;;;;;;;;;;10487114;27;20042;-60
2021/08/14 15:56:54;;;;;;;9.48;5.75;;;;;;;;;;10486585;27;20437;-60
2021/08/14 16:01:52;;;;;;;9.98;5.38;;;;;;;;;;10485602;27;20438;-60
2021/08/14 16:06:52;;;;;;;5.07;4.22;;;;;;;;;;10485312;27;20093;-61
2021/08/14 16:11:51;;;;;;;7.65;5.05;;;;;;;;;;10477813;27;20066;-61
2021/08/14 16:16:49;;;;;;;7.18;4.88;;;;;;;;;;10465802;27;20524;-61
2021/08/14 16:21:47;;;;;;;7.07;4.00;;;;;;;;;;10461685;27;20391;-60
2021/08/14 16:26:47;;;;;;;9.95;4.80;;;;;;;;;;10452211;27;20522;-59
2021/08/14 16:31:45;;;;;;;10.77;5.28;;;;;;;;;;10464507;27;20082;-58
2021/08/14 16:36:44;;;;;;;14.43;5.05;;;;;;;;;;10457136;27;20455;-60
2021/08/14 16:41:42;;;;;;;6.47;5.13;;;;;;;;;;10454186;27;20055;-61
2021/08/14 16:46:42;;;;;;;8.10;5.30;;;;;;;;;;10456900;27;20066;-61
2021/08/14 16:51:40;;;;;;;8.40;6.28;;;;;;;;;;10455923;27;20043;-58
2021/08/14 16:56:39;;;;;;;10.65;6.47;;;;;;;;;;10448723;27;20039;-59
2021/08/14 17:01:37;;;;;;;5.50;5.00;;;;;;;;;;10452222;27;20049;-56
2021/08/14 17:06:37;;;;;;;7.30;4.40;;;;;;;;;;10482464;27;20070;-58
2021/08/14 17:11:36;;;;;;;8.73;6.18;;;;;;;;;;10482394;27;20053;-59
2021/08/14 17:16:34;;;;;;;8.63;5.28;;;;;;;;;;10464668;27;20498;-58
2021/08/14 17:21:33;;;;;;;6.60;5.70;;;;;;;;;;10454688;27;20054;-58
2021/08/14 17:26:32;;;;;;;5.97;5.40;;;;;;;;;;10448920;27;20081;-59
2021/08/14 17:31:32;;;;;;;9.18;5.13;;;;;;;;;;10451075;27;20043;-58
2021/08/14 17:36:31;;;;;;;9.13;5.43;;;;;;;;;;10452051;27;20039;-58
2021/08/14 17:41:29;;;;;;;12.27;7.50;;;;;;;;;;10463526;27;20067;-58
2021/08/14 17:46:29;;;;;;;10.27;5.50;;;;;;;;;;10474352;27;20078;-58
2021/08/14 17:51:27;;;;;;;8.90;4.85;;;;;;;;;;10462241;27;20066;-54
2021/08/14 17:56:25;;;;;;;6.40;5.10;;;;;;;;;;10456078;27;20052;-58
2021/08/14 18:01:24;;;;;;;9.95;5.15;;;;;;;;;;10458198;27;20074;-59
2021/08/14 18:06:24;;;;;;;10.23;5.28;;;;;;;;;;10461287;27;20074;-59
2021/08/14 18:11:22;;;;;;;7.60;5.38;;;;;;;;;;10463529;27;20532;-59
2021/08/14 18:16:21;;;;;;;13.02;4.93;;;;;;;;;;10463922;27;20082;-60
2021/08/14 18:21:19;;;;;;;6.82;5.43;;;;;;;;;;10452145;27;20419;-59
2021/08/14 18:26:19;;;;;;;8.77;5.50;;;;;;;;;;10450435;27;20468;-59
2021/08/14 18:31:19;;;;;;;5.95;4.63;;;;;;;;;;10452119;27;20058;-59
2021/08/14 18:36:20;;;;;;;8.45;5.10;;;;;;;;;;10472271;27;20074;-54
2021/08/14 18:41:21;;;;;;;8.10;4.72;;;;;;;;;;10454987;27;20089;-58
2021/08/14 18:46:19;;;;;;;6.95;4.65;;;;;;;;;;10474082;27;20077;-58
2021/08/14 18:51:18;;;;;;;6.68;4.65;;;;;;;;;;10472968;27;20296;-56
2021/08/14 18:56:16;;;;;;;10.18;4.28;;;;;;;;;;10481663;27;20097;-59
2021/08/14 19:01:17;;;;;;;7.10;5.10;;;;;;;;;;10488875;27;20215;-58
2021/08/14 19:06:16;;;;;;;5.43;4.40;;;;;;;;;;10486975;27;20047;-59
2021/08/14 19:11:14;;;;;;;4.93;4.40;;;;;;;;;;10487842;27;20511;-58
2021/08/14 19:16:12;;;;;;;6.45;4.90;;;;;;;;;;10487251;27;20037;-58
2021/08/14 19:21:13;;;;;;;7.35;4.47;;;;;;;;;;10487208;27;20526;-58
2021/08/14 19:26:12;;;;;;;7.03;3.78;;;;;;;;;;10485766;27;20077;-57
2021/08/14 19:31:10;;;;;;;4.55;3.53;;;;;;;;;;10445905;27;20043;-58
2021/08/14 19:36:09;;;;;;;5.00;4.13;;;;;;;;;;10469275;27;20070;-59
2021/08/14 19:41:10;;;;;;;8.95;4.90;;;;;;;;;;10470331;27;20335;-59
2021/08/14 19:46:09;;;;;;;5.43;4.57;;;;;;;;;;10484733;27;20086;-59
2021/08/14 19:51:07;;;;;;;6.07;3.60;;;;;;;;;;10471054;27;20070;-59
2021/08/14 19:56:06;;;;;;;5.65;4.25;;;;;;;;;;10462811;27;20078;-57
2021/08/14 20:01:05;;;;;;;5.47;3.85;;;;;;;;;;10466797;27;20058;-59
2021/08/14 20:06:04;;;;;;;8.77;3.97;;;;;;;;;;10465047;27;20070;-58
2021/08/14 20:11:02;;;;;;;7.13;4.32;;;;;;;;;;10481804;27;20066;-59
2021/08/14 20:16:00;;;;;;;5.20;4.22;;;;;;;;;;10485196;27;20050;-60
2021/08/14 20:21:00;;;;;;;5.32;4.07;;;;;;;;;;10484420;27;20054;-60
2021/08/14 20:25:58;;;;;;;6.43;3.83;;;;;;;;;;10471322;27;20069;-60
2021/08/14 20:30:57;;;;;;;4.63;4.00;;;;;;;;;;10469145;27;20471;-60
2021/08/14 20:35:55;;;;;;;7.03;4.35;;;;;;;;;;10475824;27;20077;-59
2021/08/14 20:40:55;;;;;;;9.32;4.55;;;;;;;;;;10463351;27;20039;-60
2021/08/14 20:45:54;;;;;;;4.95;4.13;;;;;;;;;;10448590;27;20046;-60
2021/08/14 20:50:52;;;;;;;5.70;3.90;;;;;;;;;;10484725;27;20074;-60
2021/08/14 20:55:50;;;;;;;10.93;4.35;;;;;;;;;;10465269;27;20063;-59
2021/08/14 21:00:50;;;;;;;4.13;3.60;;;;;;;;;;10465935;27;20071;-60
2021/08/14 21:05:49;;;;;;;8.82;3.97;;;;;;;;;;10480804;27;20074;-60
2021/08/14 21:10:47;;;;;;;10.55;4.70;;;;;;;;;;10476259;27;20054;-58
2021/08/14 21:16:06;;;;;;;7.30;4.22;;;;;;;;;;10478629;27;20057;-56
2021/08/14 21:21:05;;;;;;;5.80;4.53;;;;;;;;;;10482807;27;20078;-60
2021/08/14 21:26:04;;;;;;;4.32;3.80;;;;;;;;;;10474825;27;20066;-58
2021/08/14 21:31:02;;;;;;;7.88;4.25;;;;;;;;;;10461922;27;20075;-54
2021/08/14 21:36:02;;;;;;;6.53;4.47;;;;;;;;;;10479015;27;20066;-59
2021/08/14 21:41:00;;;;;;;7.65;3.83;;;;;;;;;;10484293;27;20050;-59
2021/08/14 21:45:59;;;;;;;5.35;4.45;;;;;;;;;;10484378;27;20046;-59
2021/08/14 21:50:57;;;;;;;7.00;4.10;;;;;;;;;;10467631;27;20070;-60
2021/08/14 21:55:57;;;;;;;4.60;3.75;;;;;;;;;;10454912;27;20066;-59
2021/08/14 22:00:58;;;;;;;8.55;4.57;;;;;;;;;;10454023;27;20410;-58
2021/08/14 22:05:56;;;;;;;7.43;4.07;;;;;;;;;;10439179;28;20054;-59
2021/08/14 22:10:55;;;;;;;5.55;4.65;;;;;;;;;;10440748;28;20070;-59
2021/08/14 22:15:54;;;;;;;4.88;3.72;;;;;;;;;;10441018;28;20043;-58
2021/08/14 22:20:53;;;;;;;4.43;3.80;;;;;;;;;;10450475;27;20055;-59
2021/08/14 22:25:51;;;;;;;5.72;4.15;;;;;;;;;;10444368;27;20039;-59
2021/08/14 22:30:49;;;;;;;8.98;4.00;;;;;;;;;;10448334;27;20503;-60
2021/08/14 22:35:49;;;;;;;6.13;3.95;;;;;;;;;;10448284;27;20055;-60
2021/08/14 22:40:50;;;;;;;11.15;4.35;;;;;;;;;;10448465;27;20196;-60
2021/08/14 22:45:49;;;;;;;4.55;3.17;;;;;;;;;;10448326;27;20547;-60
2021/08/14 22:50:47;;;;;;;4.47;3.80;;;;;;;;;;10447571;27;20589;-59
2021/08/14 22:55:45;;;;;;;7.95;4.30;;;;;;;;;;10447766;27;20035;-59
2021/08/14 23:00:45;;;;;;;7.43;4.18;;;;;;;;;;10447603;27;20039;-58
2021/08/14 23:05:43;;;;;;;6.03;4.18;;;;;;;;;;10447544;27;20035;-59
2021/08/14 23:10:43;;;;;;;7.47;3.72;;;;;;;;;;10446626;27;20085;-60
2021/08/14 23:15:41;;;;;;;4.45;3.90;;;;;;;;;;10446002;27;20038;-60
2021/08/14 23:20:41;;;;;;;4.68;3.45;;;;;;;;;;10446443;27;20054;-60
2021/08/14 23:25:39;;;;;;;5.45;3.83;;;;;;;;;;10445859;27;20050;-59
2021/08/14 23:30:41;;;;;;;5.93;4.03;;;;;;;;;;10444915;27;20078;-57
2021/08/14 23:35:41;;;;;;;4.68;3.55;;;;;;;;;;10445104;27;20077;-60
2021/08/14 23:40:39;;;;;;;7.25;4.10;;;;;;;;;;10441593;27;20101;-60
2021/08/14 23:45:37;;;;;;;4.40;3.13;;;;;;;;;;10445550;27;20518;-59
2021/08/14 23:50:35;;;;;;;4.82;3.50;;;;;;;;;;10444509;27;20078;-60
2021/08/14 23:55:35;;;;;;;5.78;3.67;;;;;;;;;;10444974;27;20050;-60
